createdAt,value
2022-07-29T00:02:01.352Z,101013.79
2022-07-29T00:04:32.656Z,101015.63
2022-07-29T00:07:04.455Z,101012.50
2022-07-29T00:09:51.328Z,101017.19
2022-07-29T00:12:10.576Z,101008.25
2022-07-29T00:14:41.861Z,101014.14
2022-07-29T00:17:15.917Z,101014.88
2022-07-29T00:19:49.161Z,101019.01
2022-07-29T00:22:20.618Z,101022.75
2022-07-29T00:24:52.423Z,101020.48
2022-07-29T00:27:24.113Z,101024.52
2022-07-29T00:29:55.465Z,101031.32
2022-07-29T00:32:28.162Z,101028.62
2022-07-29T00:35:17.500Z,101031.55
2022-07-29T00:37:48.991Z,101032.18
2022-07-29T00:40:23.344Z,101027.36
2022-07-29T00:42:54.559Z,101031.95
2022-07-29T00:45:26.296Z,101037.25
2022-07-29T00:47:57.871Z,101044.05
2022-07-29T00:50:29.776Z,101049.91
2022-07-29T00:53:02.476Z,101042.75
2022-07-29T00:55:33.949Z,101045.95
2022-07-29T00:58:05.629Z,101046.09
2022-07-29T01:00:38.655Z,101049.75
2022-07-29T01:03:10.764Z,101042.47
2022-07-29T01:05:50.478Z,101051.11
2022-07-29T01:08:18.168Z,101044.54
2022-07-29T01:10:50.339Z,101043.97
2022-07-29T01:13:23.004Z,101046.59
2022-07-29T01:16:00.219Z,101049.27
2022-07-29T01:18:40.312Z,101050.72
2022-07-29T01:21:20.343Z,101051.43
2022-07-29T01:24:14.039Z,101045.59
2022-07-29T01:26:58.272Z,101038.42
2022-07-29T01:29:49.374Z,101039.28
2022-07-29T01:32:28.086Z,101036.66
2022-07-29T01:35:09.098Z,101032.76
2022-07-29T01:37:45.836Z,101037.48
2022-07-29T01:40:31.965Z,101029.53
2022-07-29T01:43:05.904Z,101039.19
2022-07-29T01:46:09.071Z,101029.16
2022-07-29T01:48:59.183Z,101034.08
2022-07-29T01:51:56.180Z,101031.78
2022-07-29T01:54:33.482Z,101030.46
2022-07-29T01:57:06.334Z,101036.70
2022-07-29T01:59:39.745Z,101040.78
2022-07-29T02:02:13.465Z,101037.16
2022-07-29T02:04:49.004Z,101032.42
2022-07-29T02:07:23.189Z,101037.95
2022-07-29T02:09:56.292Z,101032.50
2022-07-29T02:12:30.831Z,101028.16
2022-07-29T02:15:04.732Z,101028.66
2022-07-29T02:17:47.574Z,101028.66
2022-07-29T02:20:19.710Z,101030.89
2022-07-29T02:22:53.508Z,101022.88
2022-07-29T02:25:37.500Z,101015.61
2022-07-29T02:28:02.329Z,101020.05
2022-07-29T02:30:34.896Z,101015.81
2022-07-29T02:33:08.168Z,101024.25
2022-07-29T02:35:40.542Z,101023.15
2022-07-29T02:38:32.437Z,101019.67
2022-07-29T02:41:07.189Z,101027.80
2022-07-29T02:43:39.463Z,101031.03
2022-07-29T02:46:28.417Z,101038.95
2022-07-29T02:48:49.110Z,101029.65
2022-07-29T02:51:43.644Z,101027.63
2022-07-29T02:53:59.666Z,101023.63
2022-07-29T02:56:35.527Z,101012.02
2022-07-29T02:59:09.474Z,101008.69
2022-07-29T03:01:44.068Z,101010.03
2022-07-29T03:04:17.440Z,101017.67
2022-07-29T03:06:51.085Z,101026.14
2022-07-29T03:09:23.370Z,101016.81
2022-07-29T03:11:55.873Z,101021.06
2022-07-29T03:14:27.792Z,101018.91
2022-07-29T03:16:59.995Z,101014.50
2022-07-29T03:19:31.711Z,101014.92
2022-07-29T03:22:11.112Z,101011.51
2022-07-29T03:24:45.894Z,101008.95
2022-07-29T03:27:19.058Z,101012.95
2022-07-29T03:29:50.775Z,101019.81
2022-07-29T03:32:23.790Z,101011.75
2022-07-29T03:34:55.391Z,101011.75
2022-07-29T03:37:27.920Z,101017.19
2022-07-29T03:40:00.409Z,101016.78
2022-07-29T03:42:34.589Z,101015.09
2022-07-29T03:45:08.586Z,101018.16
2022-07-29T03:47:51.032Z,101019.74
2022-07-29T03:50:17.561Z,101023.94
2022-07-29T03:52:49.779Z,101023.45
2022-07-29T03:55:21.617Z,101028.59
2022-07-29T03:57:53.816Z,101020.19
2022-07-29T04:00:27.332Z,101018.94
2022-07-29T04:02:59.091Z,101021.31
2022-07-29T04:05:30.871Z,101025.48
2022-07-29T04:08:04.053Z,101019.59
2022-07-29T04:10:35.810Z,101017.16
2022-07-29T04:13:08.419Z,101017.66
2022-07-29T04:15:39.976Z,101018.01
2022-07-29T04:18:11.351Z,101012.58
2022-07-29T04:20:44.129Z,101015.30
2022-07-29T04:23:15.511Z,101019.67
2022-07-29T04:25:47.007Z,101010.50
2022-07-29T04:28:18.694Z,101024.97
2022-07-29T04:30:50.093Z,101028.86
2022-07-29T04:33:21.469Z,101031.88
2022-07-29T04:35:55.627Z,101034.42
2022-07-29T04:38:27.200Z,101037.11
2022-07-29T04:40:58.209Z,101041.32
2022-07-29T04:43:30.005Z,101035.31
2022-07-29T04:46:03.170Z,101042.47
2022-07-29T04:48:34.819Z,101038.28
2022-07-29T04:51:06.256Z,101038.28
2022-07-29T04:53:37.808Z,101037.61
2022-07-29T04:56:09.170Z,101033.00
2022-07-29T04:58:41.060Z,101035.17
2022-07-29T05:01:12.583Z,101034.48
2022-07-29T05:03:44.315Z,101040.16
2022-07-29T05:06:15.976Z,101040.87
2022-07-29T05:08:47.342Z,101033.75
2022-07-29T05:11:21.835Z,101036.20
2022-07-29T05:13:51.720Z,101029.14
2022-07-29T05:16:22.976Z,101026.34
2022-07-29T05:18:54.481Z,101027.44
2022-07-29T05:21:26.032Z,101035.08
2022-07-29T05:23:57.356Z,101021.58
2022-07-29T05:26:28.698Z,101031.73
2022-07-29T05:29:00.375Z,101027.58
2022-07-29T05:31:31.894Z,101024.73
2022-07-29T05:34:03.346Z,101026.73
2022-07-29T05:36:34.854Z,101013.30
2022-07-29T05:39:06.285Z,101023.31
2022-07-29T05:41:37.691Z,101012.77
2022-07-29T05:44:09.228Z,101015.25
2022-07-29T05:46:40.834Z,101016.66
2022-07-29T05:49:23.147Z,101008.47
2022-07-29T05:51:48.861Z,101004.50
2022-07-29T05:54:20.263Z,101001.90
2022-07-29T05:56:53.015Z,100996.48
2022-07-29T05:59:29.850Z,100991.38
2022-07-29T06:01:58.628Z,101004.77
2022-07-29T06:04:31.675Z,100993.48
2022-07-29T06:07:03.170Z,100991.33
2022-07-29T06:09:36.365Z,100995.88
2022-07-29T06:12:08.100Z,100982.67
2022-07-29T06:14:39.680Z,100984.40
2022-07-29T06:17:12.498Z,100983.22
2022-07-29T06:19:43.999Z,100981.37
2022-07-29T06:22:16.638Z,100984.61
2022-07-29T06:24:48.495Z,100992.22
2022-07-29T06:27:19.906Z,100990.20
2022-07-29T06:29:51.394Z,100991.96
2022-07-29T06:32:23.288Z,100998.70
2022-07-29T06:35:11.862Z,100994.47
2022-07-29T06:37:29.597Z,100983.34
2022-07-29T06:40:20.621Z,100984.60
2022-07-29T06:42:52.601Z,100982.59
2022-07-29T06:45:25.330Z,100984.70
2022-07-29T06:47:58.447Z,100977.53
2022-07-29T06:50:30.413Z,100984.47
2022-07-29T06:53:03.592Z,100989.19
2022-07-29T06:55:35.237Z,100975.91
2022-07-29T06:58:06.634Z,100977.95
2022-07-29T07:00:41.115Z,100982.56
2022-07-29T07:03:12.577Z,100975.23
2022-07-29T07:05:44.236Z,100973.79
2022-07-29T07:08:17.580Z,100974.36
2022-07-29T07:10:49.297Z,100973.91
2022-07-29T07:13:21.971Z,100965.48
2022-07-29T07:15:53.843Z,100963.72
2022-07-29T07:18:25.549Z,100958.63
2022-07-29T07:20:57.374Z,100959.77
2022-07-29T07:23:28.777Z,100960.77
2022-07-29T07:26:00.341Z,100960.73
2022-07-29T07:28:31.890Z,100964.77
2022-07-29T07:31:03.881Z,100972.15
2022-07-29T07:33:35.427Z,100971.30
2022-07-29T07:36:07.147Z,100965.87
2022-07-29T07:38:38.595Z,100959.16
2022-07-29T07:41:11.666Z,100963.60
2022-07-29T07:43:43.588Z,100959.95
2022-07-29T07:46:16.199Z,100955.45
2022-07-29T07:48:48.012Z,100960.94
2022-07-29T07:51:19.685Z,100964.23
2022-07-29T07:53:51.802Z,100969.36
2022-07-29T07:56:23.804Z,100960.62
2022-07-29T07:58:55.448Z,100968.00
2022-07-29T08:01:27.359Z,100961.66
2022-07-29T08:03:58.850Z,100974.69
2022-07-29T08:06:31.539Z,100967.62
2022-07-29T08:09:28.846Z,100968.80
2022-07-29T08:11:52.129Z,100963.09
2022-07-29T08:14:22.386Z,100973.86
2022-07-29T08:16:54.038Z,100968.05
2022-07-29T08:19:25.828Z,100963.09
2022-07-29T08:21:57.289Z,100968.56
2022-07-29T08:24:47.245Z,100963.52
2022-07-29T08:27:41.979Z,100963.11
2022-07-29T08:29:52.468Z,100959.45
2022-07-29T08:32:50.895Z,100963.27
2022-07-29T08:34:57.799Z,100967.25
2022-07-29T08:37:44.242Z,100961.02
2022-07-29T08:40:15.917Z,100967.95
2022-07-29T08:42:47.741Z,100965.33
2022-07-29T08:45:19.524Z,100968.77
2022-07-29T08:47:51.012Z,100983.24
2022-07-29T08:50:22.678Z,100972.16
2022-07-29T08:52:59.632Z,100970.36
2022-07-29T08:55:28.266Z,100977.18
2022-07-29T08:58:00.729Z,100973.47
2022-07-29T09:00:33.098Z,100974.42
2022-07-29T09:03:06.458Z,100972.30
2022-07-29T09:05:47.784Z,100963.09
2022-07-29T09:08:18.604Z,100963.34
2022-07-29T09:10:50.674Z,100961.97
2022-07-29T09:13:23.651Z,100963.05
2022-07-29T09:15:55.754Z,100972.82
2022-07-29T09:18:40.783Z,100965.36
2022-07-29T09:21:32.668Z,100970.28
2022-07-29T09:24:10.381Z,100967.80
2022-07-29T09:26:52.891Z,100964.21
2022-07-29T09:29:41.404Z,100968.56
2022-07-29T09:32:15.929Z,100957.36
2022-07-29T09:34:49.688Z,100960.81
2022-07-29T09:37:33.633Z,100956.77
2022-07-29T09:40:11.718Z,100958.50
2022-07-29T09:42:41.093Z,100954.91
2022-07-29T09:45:13.253Z,100955.45
2022-07-29T09:47:52.202Z,100953.48
2022-07-29T09:50:25.804Z,100945.28
2022-07-29T09:52:58.041Z,100948.73
2022-07-29T09:55:30.995Z,100940.51
2022-07-29T09:58:24.240Z,100942.34
2022-07-29T10:00:57.091Z,100940.81
2022-07-29T10:03:28.473Z,100934.49
2022-07-29T10:06:14.970Z,100929.01
2022-07-29T10:08:48.473Z,100947.67
2022-07-29T10:11:21.198Z,100943.33
2022-07-29T10:13:52.758Z,100943.31
2022-07-29T10:16:24.585Z,100942.70
2022-07-29T10:18:56.387Z,100939.91
2022-07-29T10:21:36.133Z,100941.27
2022-07-29T10:24:04.789Z,100938.58
2022-07-29T10:26:41.159Z,100934.50
2022-07-29T10:29:15.218Z,100931.31
2022-07-29T10:32:24.923Z,100929.30
2022-07-29T10:38:17.346Z,100932.56
2022-07-29T10:41:32.362Z,100930.82
2022-07-29T10:44:17.195Z,100933.71
2022-07-29T10:46:46.298Z,100922.74
2022-07-29T10:49:24.389Z,100930.19
2022-07-29T10:52:02.092Z,100918.84
2022-07-29T10:54:44.246Z,100916.25
2022-07-29T10:57:52.504Z,100912.48
2022-07-29T11:00:13.431Z,100918.81
2022-07-29T11:02:52.574Z,100913.20
2022-07-29T11:05:25.427Z,100895.23
2022-07-29T11:08:21.099Z,100907.50
2022-07-29T11:10:55.296Z,100897.73
2022-07-29T11:16:32.779Z,100894.00
2022-07-29T11:19:21.557Z,100890.45
2022-07-29T11:21:55.011Z,100903.38
2022-07-29T11:24:30.388Z,100893.34
2022-07-29T11:27:23.494Z,100893.27
2022-07-29T11:29:58.901Z,100891.95
2022-07-29T11:32:40.565Z,100902.20
2022-07-29T11:35:18.620Z,100885.27
2022-07-29T11:38:09.297Z,100886.45
2022-07-29T11:40:44.352Z,100883.27
2022-07-29T11:43:19.695Z,100882.59
2022-07-29T11:45:52.234Z,100892.88
2022-07-29T11:50:59.138Z,100881.77
2022-07-29T11:53:32.589Z,100876.14
2022-07-29T11:56:04.507Z,100874.77
2022-07-29T11:58:38.027Z,100870.89
2022-07-29T12:01:09.523Z,100871.97
2022-07-29T12:03:40.940Z,100861.38
2022-07-29T12:06:18.232Z,100867.19
2022-07-29T12:08:50.334Z,100872.62
2022-07-29T12:11:23.453Z,100862.83
2022-07-29T12:13:55.789Z,100861.48
2022-07-29T12:16:30.300Z,100852.62
2022-07-29T12:19:05.399Z,100858.84
2022-07-29T12:21:56.938Z,100858.84
2022-07-29T12:24:30.559Z,100852.69
2022-07-29T12:27:03.049Z,100858.77
2022-07-29T12:29:35.968Z,100849.70
2022-07-29T12:32:14.979Z,100853.60
2022-07-29T12:34:41.118Z,100849.09
2022-07-29T12:37:12.740Z,100843.44
2022-07-29T12:39:45.443Z,100852.36
2022-07-29T12:42:19.973Z,100856.99
2022-07-29T12:44:53.739Z,100854.25
2022-07-29T12:47:25.744Z,100845.99
2022-07-29T12:50:24.493Z,100841.92
2022-07-29T12:52:53.006Z,100848.72
2022-07-29T12:55:43.742Z,100841.25
2022-07-29T12:58:15.300Z,100837.92
2022-07-29T13:00:47.192Z,100832.31
2022-07-29T13:03:18.637Z,100827.16
2022-07-29T13:05:51.946Z,100825.62
2022-07-29T13:08:23.450Z,100822.97
2022-07-29T13:10:55.094Z,100816.53
2022-07-29T13:13:27.044Z,100817.58
2022-07-29T13:16:12.067Z,100820.31
2022-07-29T13:18:43.992Z,100813.08
2022-07-29T13:21:16.885Z,100812.06
2022-07-29T13:23:50.144Z,100806.56
2022-07-29T13:26:21.744Z,100817.57
2022-07-29T13:28:53.443Z,100822.95
2022-07-29T13:31:24.816Z,100809.77
2022-07-29T13:33:56.059Z,100801.72
2022-07-29T13:36:28.216Z,100799.87
2022-07-29T13:38:59.829Z,100798.34
2022-07-29T13:41:31.920Z,100794.52
2022-07-29T13:44:03.806Z,100793.86
2022-07-29T13:46:35.557Z,100797.52
2022-07-29T13:49:12.762Z,100784.58
2022-07-29T13:51:44.031Z,100789.34
2022-07-29T13:54:15.772Z,100781.77
2022-07-29T13:56:47.260Z,100779.03
2022-07-29T13:59:18.908Z,100779.05
2022-07-29T14:01:50.310Z,100785.82
2022-07-29T14:04:21.768Z,100774.77
2022-07-29T14:06:53.473Z,100791.88
2022-07-29T14:09:25.333Z,100780.51
2022-07-29T14:11:58.144Z,100787.89
2022-07-29T14:14:31.126Z,100778.55
2022-07-29T14:17:04.588Z,100773.53
2022-07-29T14:19:40.250Z,100767.16
2022-07-29T14:22:29.573Z,100776.63
2022-07-29T14:25:08.068Z,100768.22
2022-07-29T14:27:38.673Z,100777.37
2022-07-29T14:30:11.076Z,100771.30
2022-07-29T14:32:43.205Z,100767.70
2022-07-29T14:35:14.955Z,100765.80
2022-07-29T14:37:46.045Z,100760.09
2022-07-29T14:40:19.085Z,100745.99
2022-07-29T14:42:50.605Z,100747.76
2022-07-29T14:45:22.390Z,100751.55
2022-07-29T14:47:57.207Z,100750.34
2022-07-29T14:50:32.109Z,100742.98
2022-07-29T14:53:01.435Z,100748.64
2022-07-29T14:55:34.386Z,100748.80
2022-07-29T14:58:10.935Z,100746.11
2022-07-29T15:00:39.281Z,100754.87
2022-07-29T15:03:14.010Z,100751.44
2022-07-29T15:05:47.153Z,100749.98
2022-07-29T15:08:19.409Z,100744.42
2022-07-29T15:10:51.095Z,100745.99
2022-07-29T15:13:22.375Z,100744.06
2022-07-29T15:15:59.952Z,100741.80
2022-07-29T15:18:29.234Z,100732.89
2022-07-29T15:21:02.239Z,100731.23
2022-07-29T15:23:36.899Z,100742.44
2022-07-29T15:26:08.266Z,100726.60
2022-07-29T15:28:40.992Z,100731.20
2022-07-29T15:31:12.310Z,100736.21
2022-07-29T15:33:43.853Z,100740.41
2022-07-29T15:36:35.699Z,100729.78
2022-07-29T15:38:51.822Z,100735.09
2022-07-29T15:41:24.829Z,100735.86
2022-07-29T15:43:58.865Z,100730.22
2022-07-29T15:46:48.210Z,100732.06
2022-07-29T15:49:23.653Z,100733.09
2022-07-29T15:51:59.589Z,100726.19
2022-07-29T15:54:28.017Z,100720.30
2022-07-29T15:57:02.226Z,100717.98
2022-07-29T15:59:35.230Z,100721.23
2022-07-29T16:02:07.127Z,100720.84
2022-07-29T16:04:38.402Z,100684.87
2022-07-29T16:07:10.895Z,100720.25
2022-07-29T16:09:42.348Z,100712.25
2022-07-29T16:12:14.896Z,100713.42
2022-07-29T16:14:46.829Z,100706.94
2022-07-29T16:17:18.994Z,100718.17
2022-07-29T16:19:50.930Z,100714.61
2022-07-29T16:22:22.480Z,100722.15
2022-07-29T16:24:55.448Z,100716.81
2022-07-29T16:27:35.392Z,100724.66
2022-07-29T16:30:03.603Z,100728.84
2022-07-29T16:32:35.808Z,100730.60
2022-07-29T16:35:08.326Z,100724.56
2022-07-29T16:37:39.890Z,100727.11
2022-07-29T16:40:11.944Z,100724.75
2022-07-29T16:42:47.392Z,100721.00
2022-07-29T16:45:16.178Z,100725.28
2022-07-29T16:47:47.645Z,100724.91
2022-07-29T16:50:18.931Z,100729.66
2022-07-29T16:52:51.745Z,100719.65
2022-07-29T16:55:23.992Z,100723.65
2022-07-29T16:57:55.615Z,100724.53
2022-07-29T17:00:29.960Z,100711.97
2022-07-29T17:03:06.030Z,100712.19
2022-07-29T17:05:52.477Z,100715.97
2022-07-29T17:08:10.679Z,100718.36
2022-07-29T17:10:48.381Z,100712.62
2022-07-29T17:13:20.466Z,100723.41
2022-07-29T17:18:24.249Z,100722.72
2022-07-29T17:20:56.887Z,100711.42
2022-07-29T17:23:30.351Z,100708.39
2022-07-29T17:26:02.087Z,100717.71
2022-07-29T17:28:36.305Z,100719.98
2022-07-29T17:31:12.513Z,100718.39
2022-07-29T17:33:43.901Z,100712.78
2022-07-29T17:36:32.961Z,100718.80
2022-07-29T17:39:07.421Z,100710.53
2022-07-29T17:41:39.143Z,100693.55
2022-07-29T17:44:10.917Z,100693.55
2022-07-29T17:46:42.979Z,100710.90
2022-07-29T17:49:15.827Z,100708.31
2022-07-29T17:51:48.197Z,100712.63
2022-07-29T17:54:19.775Z,100709.41
2022-07-29T17:56:51.154Z,100707.91
2022-07-29T17:59:22.575Z,100716.20
2022-07-29T18:01:53.740Z,100720.42
2022-07-29T18:04:25.515Z,100716.31
2022-07-29T18:06:57.354Z,100715.52
2022-07-29T18:09:28.834Z,100721.27
2022-07-29T18:12:11.189Z,100719.64
2022-07-29T18:14:43.679Z,100724.22
2022-07-29T18:17:20.995Z,100716.75
2022-07-29T18:20:08.821Z,100721.92
2022-07-29T18:22:42.777Z,100725.95
2022-07-29T18:25:16.537Z,100727.20
2022-07-29T18:27:51.844Z,100730.97
2022-07-29T18:30:25.122Z,100727.55
2022-07-29T18:35:39.618Z,100724.06
2022-07-29T18:38:10.311Z,100717.84
2022-07-29T18:40:44.465Z,100717.70
2022-07-29T18:43:18.319Z,100719.15
2022-07-29T18:45:50.163Z,100710.95
2022-07-29T18:48:23.189Z,100709.16
2022-07-29T18:50:54.779Z,100723.81
2022-07-29T18:53:26.089Z,100724.81
2022-07-29T18:56:00.412Z,100717.94
2022-07-29T18:58:33.447Z,100727.55
2022-07-29T19:01:05.130Z,100724.11
2022-07-29T19:03:37.246Z,100727.51
2022-07-29T19:06:08.206Z,100720.27
2022-07-29T19:08:40.936Z,100729.02
2022-07-29T19:11:13.385Z,100729.02
2022-07-29T19:13:46.255Z,100739.12
2022-07-29T19:16:18.640Z,100738.68
2022-07-29T19:18:49.960Z,100749.90
2022-07-29T19:21:21.472Z,100740.79
2022-07-29T19:24:01.758Z,100748.81
2022-07-29T19:26:26.361Z,100745.02
2022-07-29T19:28:57.981Z,100746.22
2022-07-29T19:31:29.566Z,100749.03
2022-07-29T19:34:01.251Z,100747.02
2022-07-29T19:36:32.684Z,100748.82
2022-07-29T19:39:04.452Z,100747.38
2022-07-29T19:41:35.931Z,100740.62
2022-07-29T19:44:07.508Z,100745.32
2022-07-29T19:46:39.325Z,100745.86
2022-07-29T19:49:10.880Z,100743.66
2022-07-29T19:51:42.745Z,100749.19
2022-07-29T19:54:16.094Z,100750.77
2022-07-29T19:56:47.924Z,100753.62
2022-07-29T19:59:29.662Z,100743.30
2022-07-29T20:02:10.701Z,100753.28
2022-07-29T20:04:42.538Z,100755.34
2022-07-29T20:07:15.085Z,100756.55
2022-07-29T20:09:46.860Z,100750.72
2022-07-29T20:12:18.621Z,100747.07
2022-07-29T20:14:50.797Z,100755.96
2022-07-29T20:17:23.863Z,100757.58
2022-07-29T20:19:59.394Z,100758.09
2022-07-29T20:22:31.233Z,100752.86
2022-07-29T20:25:04.397Z,100752.52
2022-07-29T20:27:37.276Z,100753.29
2022-07-29T20:30:09.650Z,100752.98
2022-07-29T20:32:43.168Z,100753.99
2022-07-29T20:35:14.862Z,100738.66
2022-07-29T20:37:52.425Z,100710.23
2022-07-29T20:40:19.568Z,100736.46
2022-07-29T20:42:51.363Z,100735.14
2022-07-29T20:45:23.949Z,100736.21
2022-07-29T20:47:55.791Z,100735.13
2022-07-29T20:50:27.709Z,100734.58
2022-07-29T20:52:59.519Z,100741.15
2022-07-29T20:55:32.508Z,100742.61
2022-07-29T20:58:05.040Z,100737.39
2022-07-29T21:00:36.537Z,100737.52
2022-07-29T21:03:09.289Z,100737.23
2022-07-29T21:05:42.868Z,100734.27
2022-07-29T21:08:15.608Z,100746.16
2022-07-29T21:10:56.549Z,100739.10
2022-07-29T21:13:32.884Z,100738.62
2022-07-29T21:16:09.617Z,100739.97
2022-07-29T21:18:46.900Z,100736.61
2022-07-29T21:21:18.859Z,100741.10
2022-07-29T21:23:50.581Z,100736.68
2022-07-29T21:26:22.867Z,100727.30
2022-07-29T21:28:54.803Z,100741.61
2022-07-29T21:31:27.597Z,100743.31
2022-07-29T21:33:59.005Z,100739.63
2022-07-29T21:36:49.093Z,100741.66
2022-07-29T21:39:07.484Z,100749.48
2022-07-29T21:41:39.260Z,100745.02
2022-07-29T21:44:11.186Z,100750.06
2022-07-29T21:46:42.468Z,100755.61
2022-07-29T21:49:14.114Z,100759.56
2022-07-29T21:51:45.727Z,100750.88
2022-07-29T21:54:17.280Z,100750.02
2022-07-29T21:56:51.454Z,100752.11
2022-07-29T21:59:22.894Z,100753.13
2022-07-29T22:01:54.501Z,100754.21
2022-07-29T22:04:25.803Z,100730.86
2022-07-29T22:06:58.180Z,100762.22
2022-07-29T22:09:30.019Z,100765.33
2022-07-29T22:12:06.327Z,100757.42
2022-07-29T22:14:39.064Z,100752.23
2022-07-29T22:17:10.757Z,100749.61
2022-07-29T22:19:42.486Z,100743.28
2022-07-29T22:22:13.935Z,100740.97
2022-07-29T22:24:46.114Z,100739.14
2022-07-29T22:27:17.780Z,100747.22
2022-07-29T22:29:49.446Z,100749.47
2022-07-29T22:32:20.934Z,100740.95
2022-07-29T22:34:52.355Z,100745.87
2022-07-29T22:37:25.097Z,100744.51
2022-07-29T22:39:57.335Z,100747.38
2022-07-29T22:42:28.860Z,100742.86
2022-07-29T22:45:00.333Z,100742.92
2022-07-29T22:47:46.702Z,100743.72
2022-07-29T22:50:05.333Z,100745.35
2022-07-29T22:52:36.682Z,100746.98
2022-07-29T22:55:08.842Z,100745.20
2022-07-29T22:57:40.537Z,100751.84
2022-07-29T23:00:13.050Z,100740.62
2022-07-29T23:02:44.605Z,100740.66
2022-07-29T23:05:17.898Z,100737.10
2022-07-29T23:07:49.658Z,100742.05
2022-07-29T23:10:22.922Z,100738.59
2022-07-29T23:12:54.305Z,100737.17
2022-07-29T23:15:25.902Z,100740.62
2022-07-29T23:17:57.385Z,100741.16
2022-07-29T23:20:29.201Z,100742.48
2022-07-29T23:23:00.442Z,100741.30
2022-07-29T23:25:31.603Z,100739.42
2022-07-29T23:28:04.725Z,100738.81
2022-07-29T23:30:36.596Z,100738.89
2022-07-29T23:33:08.055Z,100747.25
2022-07-29T23:35:39.567Z,100741.12
2022-07-29T23:38:11.051Z,100736.81
2022-07-29T23:40:42.330Z,100733.73
2022-07-29T23:43:13.763Z,100732.14
2022-07-29T23:45:48.694Z,100724.39
2022-07-29T23:48:18.506Z,100728.74
2022-07-29T23:50:51.051Z,100725.14
2022-07-29T23:53:22.748Z,100712.88
2022-07-29T23:55:55.259Z,100704.73
2022-07-29T23:58:28.169Z,100699.17
